Tigre, Argentina
Current Conditions -  °F | °C
As of 9:00 AM on Saturday 01 Nov 2014 (Local Time) from SADF Reporting Station
Clear Clear  
Wind Chill: 59°   Ceiling: Unl
Heat Index: 59°   Visibility: 6mi
Dew Point: 41°   Wind: 16mph
Humidity: 51%   Direction: 90°E
Pressure: 30.24"   Gusts: 28mph
Location:  34.42°S, 58.57°W
Report Text: SADF 011200Z 09014G24KT CAVOK 15/05 Q1024
Loading
Personal Weather Stations






























Interactive Weather Map
Tropical Storm Tracking
New forecast layout! Learn more

10-Day Weather Forecast

Advertisements
Track Severe Weather on mobile